createdAt,value
2019-01-22T00:03:24.917Z,-8.10
2019-01-22T00:05:50.751Z,-8.13
2019-01-22T00:08:16.590Z,-8.26
2019-01-22T00:10:42.398Z,-8.57
2019-01-22T00:13:08.424Z,-8.68
2019-01-22T00:15:34.274Z,-8.66
2019-01-22T00:18:00.096Z,-8.35
2019-01-22T00:20:25.950Z,-8.36
2019-01-22T00:22:51.767Z,-8.42
2019-01-22T00:25:17.603Z,-8.74
2019-01-22T00:27:43.412Z,-8.75
2019-01-22T00:30:52.789Z,-8.91
2019-01-22T00:33:18.602Z,-8.71
2019-01-22T00:35:44.425Z,-8.44
2019-01-22T00:38:10.459Z,-8.41
2019-01-22T00:40:36.290Z,-8.36
2019-01-22T00:43:02.195Z,-8.44
2019-01-22T00:45:28.023Z,-8.32
2019-01-22T00:47:53.853Z,-8.29
2019-01-22T00:50:19.682Z,-8.32
2019-01-22T00:52:45.499Z,-8.34
2019-01-22T00:55:54.877Z,-8.33
2019-01-22T00:58:20.696Z,-8.40
2019-01-22T01:00:46.546Z,-8.38
2019-01-22T01:03:14.273Z,-8.38
2019-01-22T01:05:40.145Z,-8.43
2019-01-22T01:08:06.058Z,-8.55
2019-01-22T01:10:31.873Z,-8.78
2019-01-22T01:12:57.715Z,-8.82
2019-01-22T01:15:23.726Z,-8.79
2019-01-22T01:17:49.565Z,-8.97
2019-01-22T01:20:37.202Z,-8.83
2019-01-22T01:23:03.022Z,-8.92
2019-01-22T01:25:28.854Z,-8.70
2019-01-22T01:27:54.680Z,-8.71
2019-01-22T01:31:02.139Z,-8.70
2019-01-22T01:33:27.988Z,-8.79
2019-01-22T01:35:53.810Z,-8.89
2019-01-22T01:38:19.636Z,-9.03
2019-01-22T01:40:45.773Z,-9.01
2019-01-22T01:43:11.631Z,-9.10
2019-01-22T01:45:37.441Z,-9.05
2019-01-22T01:48:03.261Z,-9.05
2019-01-22T01:50:29.135Z,-9.20
2019-01-22T01:52:54.942Z,-9.24
2019-01-22T01:55:20.772Z,-9.31
2019-01-22T01:57:46.602Z,-9.38
2019-01-22T02:00:56.122Z,-9.54
2019-01-22T02:03:22.027Z,-9.69
2019-01-22T02:05:47.890Z,-9.61
2019-01-22T02:08:14.176Z,-9.80
2019-01-22T02:10:40.024Z,-9.73
2019-01-22T02:13:27.685Z,-9.46
2019-01-22T02:16:35.146Z,-9.36
2019-01-22T02:19:40.712Z,-9.28
2019-01-22T02:22:48.190Z,-9.23
2019-01-22T02:25:55.957Z,-9.10
2019-01-22T02:29:03.447Z,-9.19
2019-01-22T02:32:09.016Z,-9.19
2019-01-22T02:35:15.474Z,-9.04
2019-01-22T02:38:22.938Z,-9.01
2019-01-22T02:41:28.533Z,-8.87
2019-01-22T02:44:34.118Z,-9.01
2019-01-22T02:47:39.678Z,-9.22
2019-01-22T02:50:46.798Z,-9.17
2019-01-22T02:53:52.358Z,-9.34
2019-01-22T02:56:59.820Z,-9.46
2019-01-22T03:00:05.400Z,-9.47
2019-01-22T03:03:12.859Z,-9.44
2019-01-22T03:06:20.332Z,-9.37
2019-01-22T03:09:25.912Z,-9.40
2019-01-22T03:12:33.695Z,-9.40
2019-01-22T03:15:41.461Z,-9.35
2019-01-22T03:18:48.954Z,-9.32
2019-01-22T03:21:56.494Z,-9.49
2019-01-22T03:25:04.194Z,-9.45
2019-01-22T03:28:11.672Z,-9.43
2019-01-22T03:31:19.167Z,-9.46
2019-01-22T03:34:26.661Z,-9.42
2019-01-22T03:37:34.423Z,-9.59
2019-01-22T03:40:42.186Z,-9.68
2019-01-22T03:43:49.659Z,-9.75
2019-01-22T03:46:57.133Z,-9.74
2019-01-22T03:50:02.703Z,-9.77
2019-01-22T03:53:10.192Z,-9.81
2019-01-22T03:56:15.766Z,-9.71
2019-01-22T03:58:41.654Z,-9.51
2019-01-22T04:01:07.662Z,-9.40
2019-01-22T04:03:33.509Z,-9.32
2019-01-22T04:06:40.989Z,-9.17
2019-01-22T04:09:48.502Z,-9.17
2019-01-22T04:12:14.320Z,-9.16
2019-01-22T04:14:40.204Z,-9.15
2019-01-22T04:17:06.030Z,-9.14
2019-01-22T04:19:31.958Z,-9.07
2019-01-22T04:21:57.861Z,-8.97
2019-01-22T04:28:04.086Z,-8.93
2019-01-22T04:31:11.565Z,-8.78
2019-01-22T04:34:17.139Z,-8.77
2019-01-22T04:37:22.695Z,-8.82
2019-01-22T04:40:30.187Z,-8.74
2019-01-22T04:43:35.755Z,-8.67
2019-01-22T04:46:41.334Z,-8.66
2019-01-22T04:49:48.793Z,-8.63
2019-01-22T04:52:56.287Z,-8.62
2019-01-22T04:56:01.859Z,-8.65
2019-01-22T04:59:07.417Z,-8.63
2019-01-22T05:02:13.006Z,-8.57
2019-01-22T05:05:18.621Z,-8.66
2019-01-22T05:08:24.181Z,-8.66
2019-01-22T05:11:30.032Z,-8.61
2019-01-22T05:14:37.500Z,-8.56
2019-01-22T05:17:43.063Z,-8.59
2019-01-22T05:20:50.552Z,-8.58
2019-01-22T05:23:58.336Z,-8.51
2019-01-22T05:27:03.920Z,-8.44
2019-01-22T05:30:09.503Z,-8.43
2019-01-22T05:33:16.996Z,-8.41
2019-01-22T05:36:22.648Z,-8.23
2019-01-22T05:39:28.280Z,-8.30
2019-01-22T05:42:35.773Z,-8.27
2019-01-22T05:45:43.265Z,-8.32
2019-01-22T05:48:48.838Z,-8.23
2019-01-22T05:51:56.380Z,-8.09
2019-01-22T05:55:03.858Z,-8.10
2019-01-22T05:58:11.332Z,-8.26
2019-01-22T06:01:18.823Z,-8.31
2019-01-22T06:04:26.414Z,-8.35
2019-01-22T06:07:33.889Z,-8.32
2019-01-22T06:10:39.502Z,-8.24
2019-01-22T06:13:46.965Z,-8.21
2019-01-22T06:16:52.556Z,-8.18
2019-01-22T06:20:00.021Z,-8.29
2019-01-22T06:23:07.494Z,-8.36
2019-01-22T06:26:13.089Z,-8.31
2019-01-22T06:29:18.647Z,-8.31
2019-01-22T06:32:26.194Z,-8.19
2019-01-22T06:35:33.647Z,-8.20
2019-01-22T06:38:39.227Z,-8.21
2019-01-22T06:41:46.767Z,-8.11
2019-01-22T06:44:52.346Z,-8.06
2019-01-22T06:47:57.942Z,-8.14
2019-01-22T06:51:03.500Z,-7.96
2019-01-22T06:54:11.002Z,-7.92
2019-01-22T06:57:16.572Z,-7.82
2019-01-22T07:00:22.167Z,-7.69
2019-01-22T07:03:27.734Z,-7.75
2019-01-22T07:06:33.307Z,-7.73
2019-01-22T07:09:38.872Z,-7.74
2019-01-22T07:12:46.355Z,-7.68
2019-01-22T07:15:53.843Z,-7.65
2019-01-22T07:18:59.418Z,-7.59
2019-01-22T07:22:05.000Z,-7.71
2019-01-22T07:25:12.485Z,-7.68
2019-01-22T07:28:18.064Z,-7.58
2019-01-22T07:31:25.587Z,-7.48
2019-01-22T07:34:33.173Z,-7.51
2019-01-22T07:37:40.645Z,-7.28
2019-01-22T07:40:46.216Z,-7.39
2019-01-22T07:43:53.669Z,-7.40
2019-01-22T07:47:01.143Z,-7.39
2019-01-22T07:50:08.615Z,-7.38
2019-01-22T07:53:16.119Z,-7.45
2019-01-22T07:56:21.699Z,-7.44
2019-01-22T07:59:29.164Z,-7.37
2019-01-22T08:02:34.744Z,-7.44
2019-01-22T08:06:00.184Z,-7.38
2019-01-22T08:09:07.709Z,-7.42
2019-01-22T08:12:15.260Z,-7.40
2019-01-22T08:15:20.840Z,-7.39
2019-01-22T08:18:28.338Z,-7.26
2019-01-22T08:21:33.923Z,-7.35
2019-01-22T08:24:39.516Z,-7.35
2019-01-22T08:27:47.040Z,-7.21
2019-01-22T08:30:54.569Z,-7.08
2019-01-22T08:34:00.168Z,-6.98
2019-01-22T08:37:05.896Z,-7.00
2019-01-22T08:40:11.510Z,-6.97
2019-01-22T08:43:19.007Z,-7.02
2019-01-22T08:46:24.622Z,-6.92
2019-01-22T08:49:32.110Z,-6.74
2019-01-22T08:52:39.620Z,-6.60
2019-01-22T08:55:45.222Z,-6.67
2019-01-22T08:58:50.925Z,-6.58
2019-01-22T09:01:56.530Z,-6.51
2019-01-22T09:05:02.137Z,-6.39
2019-01-22T09:08:09.933Z,-6.50
2019-01-22T09:11:15.785Z,-6.37
2019-01-22T09:14:21.345Z,-6.24
2019-01-22T09:17:26.923Z,-6.18
2019-01-22T09:20:34.469Z,-6.05
2019-01-22T09:23:40.011Z,-5.89
2019-01-22T09:26:45.627Z,-5.70
2019-01-22T09:29:53.156Z,-5.58
2019-01-22T09:33:00.683Z,-5.51
2019-01-22T09:36:06.299Z,-5.43
2019-01-22T09:38:32.335Z,-5.45
2019-01-22T09:40:58.212Z,-5.36
2019-01-22T09:43:24.063Z,-5.18
2019-01-22T09:45:49.889Z,-5.11
2019-01-22T09:48:15.757Z,-5.17
2019-01-22T09:50:41.591Z,-5.20
2019-01-22T09:53:07.590Z,-5.07
2019-01-22T09:55:33.566Z,-4.96
2019-01-22T09:57:59.407Z,-4.93
2019-01-22T10:00:25.245Z,-4.91
2019-01-22T10:02:51.106Z,-4.82
2019-01-22T10:05:16.956Z,-4.63
2019-01-22T10:07:42.797Z,-4.61
2019-01-22T10:10:28.506Z,-4.52
2019-01-22T10:12:54.531Z,-4.44
2019-01-22T10:16:02.058Z,-4.43
2019-01-22T10:18:27.916Z,-4.39
2019-01-22T10:20:53.859Z,-4.19
2019-01-22T10:23:19.755Z,-4.06
2019-01-22T10:25:45.584Z,-4.11
2019-01-22T10:28:11.549Z,-4.08
2019-01-22T10:30:37.568Z,-4.12
2019-01-22T10:33:03.416Z,-4.19
2019-01-22T10:35:29.256Z,-4.04
2019-01-22T10:37:55.109Z,-3.99
2019-01-22T10:41:02.596Z,-4.00
2019-01-22T10:43:28.456Z,-3.99
2019-01-22T10:45:54.292Z,-4.03
2019-01-22T10:48:20.105Z,-4.11
2019-01-22T10:50:45.940Z,-4.00
2019-01-22T10:53:11.797Z,-4.02
2019-01-22T10:55:37.623Z,-4.03
2019-01-22T10:58:45.089Z,-4.05
2019-01-22T11:01:11.138Z,-3.99
2019-01-22T11:03:36.947Z,-3.96
2019-01-22T11:06:02.887Z,-3.89
2019-01-22T11:08:28.701Z,-3.85
2019-01-22T11:10:54.538Z,-3.79
2019-01-22T11:13:20.341Z,-3.72
2019-01-22T11:15:46.193Z,-3.76
2019-01-22T11:18:12.027Z,-3.84
2019-01-22T11:20:37.836Z,-3.86
2019-01-22T11:23:03.791Z,-3.82
2019-01-22T11:26:11.278Z,-3.80
2019-01-22T11:28:37.113Z,-3.81
2019-01-22T11:31:03.038Z,-3.79
2019-01-22T11:33:33.317Z,-3.70
2019-01-22T11:35:56.645Z,-3.72
2019-01-22T11:38:22.497Z,-3.66
2019-01-22T11:41:08.186Z,-3.60
2019-01-22T11:43:34.017Z,-3.60
2019-01-22T11:45:59.837Z,-3.41
2019-01-22T11:48:25.683Z,-3.37
2019-01-22T11:50:51.503Z,-3.60
2019-01-22T11:53:17.357Z,-3.59
2019-01-22T11:55:43.266Z,-3.79
2019-01-22T11:58:09.430Z,-3.61
2019-01-22T12:00:55.238Z,-3.75
2019-01-22T12:03:21.080Z,-3.68
2019-01-22T12:05:46.907Z,-3.69
2019-01-22T12:08:12.730Z,-3.93
2019-01-22T12:10:38.561Z,-3.81
2019-01-22T12:13:04.510Z,-3.75
2019-01-22T12:15:30.335Z,-3.68
2019-01-22T12:20:50.948Z,-3.70
2019-01-22T12:23:16.811Z,-3.80
2019-01-22T12:25:42.850Z,-3.75
2019-01-22T12:28:08.954Z,-3.47
2019-01-22T12:30:56.579Z,-3.48
2019-01-22T12:33:22.391Z,-3.57
2019-01-22T12:35:48.228Z,-3.60
2019-01-22T12:38:14.045Z,-3.60
2019-01-22T12:40:39.877Z,-3.67
2019-01-22T12:43:05.814Z,-3.73
2019-01-22T12:46:13.310Z,-3.70
2019-01-22T12:48:39.150Z,-3.75
2019-01-22T12:51:04.981Z,-3.59
2019-01-22T12:53:30.799Z,-3.45
2019-01-22T12:55:56.629Z,-3.54
2019-01-22T12:58:22.447Z,-3.55
2019-01-22T13:00:48.283Z,-3.56
2019-01-22T13:03:14.112Z,-3.47
2019-01-22T13:06:21.593Z,-3.50
2019-01-22T13:08:47.438Z,-3.62
2019-01-22T13:11:13.485Z,-3.57
2019-01-22T13:13:39.408Z,-3.52
2019-01-22T13:16:05.320Z,-3.40
2019-01-22T13:18:31.131Z,-3.38
2019-01-22T13:20:57.104Z,-3.45
2019-01-22T13:23:22.920Z,-3.55
2019-01-22T13:25:48.782Z,-3.56
2019-01-22T13:28:14.669Z,-3.63
2019-01-22T13:30:40.601Z,-3.66
2019-01-22T13:33:06.510Z,-3.95
2019-01-22T13:35:32.495Z,-3.60
2019-01-22T13:37:58.389Z,-3.65
2019-01-22T13:40:24.375Z,-3.59
2019-01-22T13:42:50.304Z,-3.65
2019-01-22T13:48:22.865Z,-3.59
2019-01-22T13:50:48.716Z,-3.65
2019-01-22T13:53:14.714Z,-3.55
2019-01-22T13:55:40.689Z,-3.63
2019-01-22T13:58:06.696Z,-3.63
2019-01-22T14:00:32.663Z,-3.67
2019-01-22T14:03:40.177Z,-3.63
2019-01-22T14:06:06.109Z,-3.54
2019-01-22T14:08:32.109Z,-3.53
2019-01-22T14:10:57.967Z,-3.64
2019-01-22T14:13:23.932Z,-3.62
2019-01-22T14:15:49.895Z,-3.79
2019-01-22T14:18:16.131Z,-3.84
2019-01-22T14:20:41.983Z,-3.84
2019-01-22T14:23:49.611Z,-3.83
2019-01-22T14:26:15.468Z,-3.90
2019-01-22T14:28:41.376Z,-3.91
2019-01-22T14:31:07.495Z,-3.96
2019-01-22T14:33:33.383Z,-3.98
2019-01-22T14:35:59.237Z,-3.99
2019-01-22T14:38:25.095Z,-3.94
2019-01-22T14:40:50.974Z,-4.02
2019-01-22T14:43:16.959Z,-3.89
2019-01-22T14:45:42.826Z,-3.90
2019-01-22T14:48:08.821Z,-3.94
2019-01-22T14:50:34.744Z,-3.96
2019-01-22T14:53:00.636Z,-3.94
2019-01-22T14:55:26.660Z,-4.03
2019-01-22T14:57:52.543Z,-3.99
2019-01-22T15:01:00.078Z,-4.04
2019-01-22T15:03:25.982Z,-4.04
2019-01-22T15:05:51.864Z,-3.98
2019-01-22T15:08:17.736Z,-3.93
2019-01-22T15:10:43.626Z,-4.03
2019-01-22T15:13:09.544Z,-4.00
2019-01-22T15:15:35.783Z,-4.31
2019-01-22T15:18:01.781Z,-4.23
2019-01-22T15:21:09.292Z,-4.33
2019-01-22T15:23:35.187Z,-4.46
2019-01-22T15:26:01.063Z,-4.48
2019-01-22T15:28:27.034Z,-4.42
2019-01-22T15:30:52.965Z,-4.60
2019-01-22T15:33:18.966Z,-4.46
2019-01-22T15:35:44.805Z,-4.41
2019-01-22T15:38:10.647Z,-4.43
2019-01-22T15:40:36.468Z,-4.33
2019-01-22T15:43:02.419Z,-4.40
2019-01-22T15:45:28.375Z,-4.36
2019-01-22T15:47:54.413Z,-4.35
2019-01-22T15:51:02.173Z,-4.41
2019-01-22T15:53:28.135Z,-4.43
2019-01-22T15:55:53.963Z,-4.45
2019-01-22T15:58:19.800Z,-4.42
2019-01-22T16:00:45.820Z,-4.30
2019-01-22T16:03:11.675Z,-4.25
2019-01-22T16:05:37.530Z,-4.33
2019-01-22T16:08:03.354Z,-4.31
2019-01-22T16:10:29.268Z,-4.35
2019-01-22T16:12:55.384Z,-4.31
2019-01-22T16:16:02.885Z,-4.42
2019-01-22T16:18:28.740Z,-4.37
2019-01-22T16:20:54.570Z,-4.31
2019-01-22T16:23:20.393Z,-4.17
2019-01-22T16:25:46.253Z,-4.19
2019-01-22T16:28:12.091Z,-4.31
2019-01-22T16:30:37.965Z,-4.30
2019-01-22T16:33:03.804Z,-4.26
2019-01-22T16:35:29.629Z,-4.27
2019-01-22T16:37:55.494Z,-4.18
2019-01-22T16:40:21.344Z,-4.22
2019-01-22T16:43:28.837Z,-4.23
2019-01-22T16:45:54.687Z,-4.14
2019-01-22T16:48:20.577Z,-4.13
2019-01-22T16:50:46.420Z,-4.19
2019-01-22T16:53:12.461Z,-4.32
2019-01-22T16:56:19.926Z,-4.23
2019-01-22T16:58:45.793Z,-4.18
2019-01-22T17:01:11.653Z,-4.26
2019-01-22T17:03:37.587Z,-4.26
2019-01-22T17:06:03.611Z,-4.24
2019-01-22T17:08:29.468Z,-4.21
2019-01-22T17:10:56.405Z,-4.14
2019-01-22T17:13:23.072Z,-4.28
2019-01-22T17:15:48.907Z,-4.19
2019-01-22T17:18:14.803Z,-4.20
2019-01-22T17:20:40.670Z,-4.25
2019-01-22T17:23:06.480Z,-4.26
2019-01-22T17:25:32.322Z,-4.43
2019-01-22T17:27:58.160Z,-4.33
2019-01-22T17:30:24.277Z,-4.32
2019-01-22T17:33:09.972Z,-4.39
2019-01-22T17:38:09.694Z,-4.14
2019-01-22T17:40:35.539Z,-4.17
2019-01-22T17:43:01.393Z,-4.17
2019-01-22T17:45:27.314Z,-4.24
2019-01-22T17:47:53.223Z,-4.18
2019-01-22T17:50:19.085Z,-4.16
2019-01-22T17:52:44.909Z,-4.14
2019-01-22T17:55:52.412Z,-4.09
2019-01-22T17:58:18.232Z,-4.14
2019-01-22T18:00:44.072Z,-4.12
2019-01-22T18:03:09.909Z,-4.08
2019-01-22T18:05:35.823Z,-4.11
2019-01-22T18:08:01.670Z,-4.19
2019-01-22T18:10:27.605Z,-4.24
2019-01-22T18:12:53.559Z,-4.22
2019-01-22T18:16:01.088Z,-4.18
2019-01-22T18:18:26.927Z,-4.13
2019-01-22T18:20:52.759Z,-4.20
2019-01-22T18:23:18.614Z,-4.03
2019-01-22T18:25:44.469Z,-4.06
2019-01-22T18:28:10.572Z,-4.13
2019-01-22T18:30:36.499Z,-4.23
2019-01-22T18:33:02.432Z,-4.31
2019-01-22T18:35:48.123Z,-4.06
2019-01-22T18:38:14.002Z,-4.08
2019-01-22T18:40:39.845Z,-4.10
2019-01-22T18:43:05.876Z,-4.05
2019-01-22T18:45:32.475Z,-4.01
2019-01-22T18:47:58.409Z,-4.03
2019-01-22T18:51:05.943Z,-4.11
2019-01-22T18:53:32.386Z,-4.20
2019-01-22T18:55:58.220Z,-4.14
2019-01-22T18:58:24.189Z,-4.19
2019-01-22T19:00:50.120Z,-4.22
2019-01-22T19:03:15.990Z,-4.17
2019-01-22T19:05:41.884Z,-4.16
2019-01-22T19:08:07.992Z,-4.17
2019-01-22T19:10:33.876Z,-4.21
2019-01-22T19:13:00.454Z,-4.01
2019-01-22T19:15:26.444Z,-3.97
2019-01-22T19:17:52.326Z,-3.99
2019-01-22T19:20:18.162Z,-3.90
2019-01-22T19:22:44.033Z,-4.01
2019-01-22T19:25:29.762Z,-3.95
2019-01-22T19:27:55.637Z,-4.14
2019-01-22T19:31:03.102Z,-4.07
2019-01-22T19:33:28.976Z,-4.07
2019-01-22T19:35:54.875Z,-4.08
2019-01-22T19:38:20.872Z,-4.16
2019-01-22T19:40:46.813Z,-4.16
2019-01-22T19:43:12.719Z,-4.16
2019-01-22T19:45:38.607Z,-4.26
2019-01-22T19:48:04.631Z,-4.32
2019-01-22T19:50:30.601Z,-4.23
2019-01-22T19:52:56.522Z,-4.27
2019-01-22T19:55:22.363Z,-4.24
2019-01-22T19:57:48.232Z,-4.27
2019-01-22T20:00:34.669Z,-4.30
2019-01-22T20:06:07.955Z,-4.28
2019-01-22T20:08:33.877Z,-4.40
2019-01-22T20:10:59.846Z,-4.36
2019-01-22T20:13:25.716Z,-4.35
2019-01-22T20:15:51.574Z,-4.43
2019-01-22T20:18:17.411Z,-4.35
2019-01-22T20:20:43.271Z,-4.29
2019-01-22T20:23:09.120Z,-4.22
2019-01-22T20:25:34.947Z,-4.27
2019-01-22T20:28:01.033Z,-4.34
2019-01-22T20:31:08.531Z,-4.41
2019-01-22T20:33:34.478Z,-4.45
2019-01-22T20:36:00.437Z,-4.51
2019-01-22T20:38:26.269Z,-4.50
2019-01-22T20:40:52.236Z,-4.54
2019-01-22T20:43:18.121Z,-4.60
2019-01-22T20:45:43.951Z,-4.65
2019-01-22T20:48:09.818Z,-4.77
2019-01-22T20:50:35.657Z,-4.87
2019-01-22T20:53:01.532Z,-4.79
2019-01-22T20:55:27.339Z,-4.87
2019-01-22T20:57:54.994Z,-4.87
2019-01-22T21:01:02.591Z,-4.93
2019-01-22T21:03:28.909Z,-4.98
2019-01-22T21:05:55.061Z,-5.10
2019-01-22T21:10:54.689Z,-5.31
2019-01-22T21:13:20.667Z,-5.31
2019-01-22T21:15:46.517Z,-5.42
2019-01-22T21:18:12.370Z,-5.46
2019-01-22T21:20:38.373Z,-5.63
2019-01-22T21:23:04.428Z,-5.57
2019-01-22T21:25:30.761Z,-5.65
2019-01-22T21:28:01.714Z,-5.66
2019-01-22T21:31:06.220Z,-5.72
2019-01-22T21:33:32.049Z,-5.78
2019-01-22T21:35:57.922Z,-5.85
2019-01-22T21:38:23.846Z,-5.83
2019-01-22T21:40:49.754Z,-5.94
2019-01-22T21:43:15.616Z,-5.91
2019-01-22T21:45:41.618Z,-5.97
2019-01-22T21:48:07.532Z,-6.16
2019-01-22T21:50:33.410Z,-6.12
2019-01-22T21:52:59.337Z,-6.14
2019-01-22T21:55:25.263Z,-6.22
2019-01-22T21:58:32.766Z,-6.25
2019-01-22T22:00:58.627Z,-6.28
2019-01-22T22:03:24.469Z,-6.34
2019-01-22T22:05:50.336Z,-6.36
2019-01-22T22:08:16.171Z,-6.32
2019-01-22T22:10:42.084Z,-6.36
2019-01-22T22:13:07.891Z,-6.33
2019-01-22T22:15:33.872Z,-6.43
2019-01-22T22:17:59.740Z,-6.48
2019-01-22T22:20:25.601Z,-6.52
2019-01-22T22:22:51.570Z,-6.60
2019-01-22T22:25:37.291Z,-6.70
2019-01-22T22:28:44.792Z,-6.74
2019-01-22T22:31:10.662Z,-6.72
2019-01-22T22:33:36.545Z,-6.71
2019-01-22T22:36:02.538Z,-6.81
2019-01-22T22:38:48.511Z,-6.81
2019-01-22T22:41:14.372Z,-6.81
2019-01-22T22:43:40.251Z,-6.91
2019-01-22T22:46:06.125Z,-6.89
2019-01-22T22:48:31.973Z,-6.96
2019-01-22T22:50:57.794Z,-7.03
2019-01-22T22:53:23.659Z,-6.97
2019-01-22T22:55:49.498Z,-6.96
2019-01-22T22:58:21.794Z,-7.00
2019-01-22T23:01:24.707Z,-6.96
2019-01-22T23:03:50.664Z,-6.99
2019-01-22T23:06:16.606Z,-6.92
2019-01-22T23:08:42.462Z,-6.98
2019-01-22T23:11:08.317Z,-6.94
2019-01-22T23:13:34.165Z,-7.20
2019-01-22T23:16:00.016Z,-7.12
2019-01-22T23:18:25.831Z,-7.08
2019-01-22T23:20:51.754Z,-7.11
2019-01-22T23:23:59.220Z,-7.09
2019-01-22T23:26:25.151Z,-7.08
2019-01-22T23:28:50.978Z,-7.08
2019-01-22T23:31:16.806Z,-7.13
2019-01-22T23:33:42.730Z,-7.20
2019-01-22T23:36:08.677Z,-7.28
2019-01-22T23:38:34.470Z,-7.32
2019-01-22T23:41:00.325Z,-7.38
2019-01-22T23:43:26.242Z,-7.54
2019-01-22T23:45:52.113Z,-7.64
2019-01-22T23:48:17.963Z,-7.75
2019-01-22T23:50:43.788Z,-7.70
2019-01-22T23:53:09.735Z,-7.67
2019-01-22T23:55:35.574Z,-7.72
2019-01-22T23:58:01.409Z,-7.73
